createdAt,value
2023-04-23T00:01:57.570Z,99585.31
2023-04-23T00:04:26.347Z,99581.38
2023-04-23T00:06:54.625Z,99579.14
2023-04-23T00:09:22.156Z,99576.60
2023-04-23T00:11:50.049Z,99578.56
2023-04-23T00:14:17.712Z,99580.77
2023-04-23T00:16:45.350Z,99576.23
2023-04-23T00:19:12.937Z,99581.72
2023-04-23T00:21:40.253Z,99587.83
2023-04-23T00:24:08.226Z,99588.23
2023-04-23T00:26:35.848Z,99589.57
2023-04-23T00:29:03.579Z,99592.27
2023-04-23T00:31:31.443Z,99592.48
2023-04-23T00:33:58.534Z,99595.19
2023-04-23T00:36:26.466Z,99595.59
2023-04-23T00:38:54.159Z,99596.49
2023-04-23T00:41:21.779Z,99599.23
2023-04-23T00:43:49.175Z,99603.48
2023-04-23T00:46:16.980Z,99604.33
2023-04-23T00:48:44.763Z,99604.99
2023-04-23T00:51:12.428Z,99607.60
2023-04-23T00:53:40.390Z,99609.97
2023-04-23T00:56:08.705Z,99609.17
2023-04-23T00:58:36.700Z,99612.16
2023-04-23T01:01:05.137Z,99611.26
2023-04-23T01:03:34.744Z,99609.95
2023-04-23T01:06:02.865Z,99613.48
2023-04-23T01:08:30.758Z,99611.95
2023-04-23T01:10:58.471Z,99614.71
2023-04-23T01:13:29.845Z,99614.93
2023-04-23T01:15:57.830Z,99615.70
2023-04-23T01:18:25.281Z,99617.00
2023-04-23T01:20:53.605Z,99615.38
2023-04-23T01:23:21.938Z,99613.55
2023-04-23T01:25:49.489Z,99612.23
2023-04-23T01:28:16.989Z,99609.70
2023-04-23T01:30:44.456Z,99613.36
2023-04-23T01:33:12.449Z,99615.52
2023-04-23T01:35:40.859Z,99620.42
2023-04-23T01:38:11.114Z,99621.64
2023-04-23T01:40:39.213Z,99620.46
2023-04-23T01:43:07.672Z,99618.38
2023-04-23T01:45:35.664Z,99620.65
2023-04-23T01:48:03.788Z,99617.89
2023-04-23T01:50:31.290Z,99623.09
2023-04-23T01:52:58.822Z,99620.23
2023-04-23T01:55:26.854Z,99617.70
2023-04-23T01:57:54.016Z,99616.80
2023-04-23T02:00:21.861Z,99615.00
2023-04-23T02:02:50.674Z,99615.13
2023-04-23T02:05:18.954Z,99619.85
2023-04-23T02:07:47.383Z,99622.55
2023-04-23T02:10:15.329Z,99627.42
2023-04-23T02:12:42.907Z,99627.88
2023-04-23T02:15:10.367Z,99631.48
2023-04-23T02:17:40.169Z,99633.94
2023-04-23T02:20:12.083Z,99639.23
2023-04-23T02:22:40.378Z,99640.56
2023-04-23T02:25:08.480Z,99644.60
2023-04-23T02:27:36.350Z,99647.52
2023-04-23T02:30:03.906Z,99649.91
2023-04-23T02:32:31.524Z,99652.23
2023-04-23T02:34:59.894Z,99652.77
2023-04-23T02:37:27.621Z,99655.27
2023-04-23T02:39:55.331Z,99657.96
2023-04-23T02:42:22.849Z,99660.70
2023-04-23T02:44:50.804Z,99655.45
2023-04-23T02:47:18.465Z,99659.73
2023-04-23T02:49:45.968Z,99664.48
2023-04-23T02:52:13.889Z,99662.41
2023-04-23T02:54:41.737Z,99665.00
2023-04-23T02:57:09.652Z,99668.42
2023-04-23T02:59:37.974Z,99669.36
2023-04-23T03:02:06.586Z,99672.80
2023-04-23T03:04:35.924Z,99672.39
2023-04-23T03:07:04.059Z,99674.15
2023-04-23T03:09:33.400Z,99683.06
2023-04-23T03:12:00.749Z,99681.96
2023-04-23T03:14:28.712Z,99684.13
2023-04-23T03:16:57.203Z,99685.66
2023-04-23T03:25:09.083Z,99686.09
2023-04-23T03:27:39.027Z,99690.36
2023-04-23T03:30:09.368Z,99691.80
2023-04-23T03:32:37.658Z,99699.64
2023-04-23T03:35:06.327Z,99698.23
2023-04-23T03:37:34.485Z,99699.87
2023-04-23T03:40:07.981Z,99702.65
2023-04-23T03:42:37.681Z,99706.58
2023-04-23T03:45:06.902Z,99708.08
2023-04-23T03:47:37.149Z,99714.30
2023-04-23T03:50:05.406Z,99716.84
2023-04-23T03:52:33.567Z,99720.41
2023-04-23T03:55:02.124Z,99718.13
2023-04-23T03:57:39.831Z,99725.16
2023-04-23T04:00:19.922Z,99721.98
2023-04-23T04:02:47.324Z,99726.23
2023-04-23T04:05:15.281Z,99725.43
2023-04-23T04:07:43.508Z,99725.24
2023-04-23T04:10:11.525Z,99730.85
2023-04-23T04:12:39.936Z,99732.95
2023-04-23T04:15:10.441Z,99735.81
2023-04-23T04:17:38.598Z,99737.19
2023-04-23T04:20:08.819Z,99736.27
2023-04-23T04:22:36.415Z,99742.50
2023-04-23T04:25:05.436Z,99740.52
2023-04-23T04:27:37.695Z,99743.30
2023-04-23T04:30:06.389Z,99751.33
2023-04-23T04:32:34.575Z,99751.91
2023-04-23T04:35:02.906Z,99754.12
2023-04-23T04:37:30.624Z,99754.66
2023-04-23T04:39:57.763Z,99753.63
2023-04-23T04:42:25.603Z,99759.46
2023-04-23T04:44:53.916Z,99763.30
2023-04-23T04:47:22.117Z,99763.10
2023-04-23T04:49:49.990Z,99765.52
2023-04-23T04:52:17.739Z,99770.39
2023-04-23T04:54:45.864Z,99774.20
2023-04-23T04:57:13.957Z,99770.52
2023-04-23T04:59:42.170Z,99778.07
2023-04-23T05:02:10.528Z,99778.45
2023-04-23T05:04:38.619Z,99778.92
2023-04-23T05:07:06.712Z,99778.20
2023-04-23T05:09:34.730Z,99780.83
2023-04-23T05:12:02.216Z,99792.64
2023-04-23T05:14:30.882Z,99791.97
2023-04-23T05:16:58.974Z,99801.59
2023-04-23T05:19:26.600Z,99803.05
2023-04-23T05:21:54.505Z,99797.30
2023-04-23T05:24:22.022Z,99796.69
2023-04-23T05:26:50.105Z,99800.10
2023-04-23T05:29:19.519Z,99798.86
2023-04-23T05:31:47.017Z,99805.66
2023-04-23T05:34:14.922Z,99806.02
2023-04-23T05:36:42.596Z,99807.14
2023-04-23T05:39:10.491Z,99814.58
2023-04-23T05:41:38.484Z,99811.17
2023-04-23T05:44:05.996Z,99814.67
2023-04-23T05:46:33.581Z,99817.27
2023-04-23T05:49:01.040Z,99822.20
2023-04-23T05:51:28.544Z,99822.19
2023-04-23T05:53:55.705Z,99820.91
2023-04-23T05:56:23.611Z,99822.82
2023-04-23T05:58:51.017Z,99823.36
2023-04-23T06:01:19.086Z,99832.84
2023-04-23T06:03:48.031Z,99834.65
2023-04-23T06:06:16.236Z,99840.97
2023-04-23T06:08:44.747Z,99845.48
2023-04-23T06:11:13.866Z,99846.80
2023-04-23T06:13:44.056Z,99847.73
2023-04-23T06:16:12.188Z,99849.81
2023-04-23T06:18:40.268Z,99849.99
2023-04-23T06:21:07.922Z,99845.92
2023-04-23T06:23:36.873Z,99846.36
2023-04-23T06:26:05.782Z,99844.87
2023-04-23T06:28:33.729Z,99852.70
2023-04-23T06:31:22.254Z,99852.23
2023-04-23T06:33:51.163Z,99854.54
2023-04-23T06:36:19.387Z,99860.98
2023-04-23T06:38:47.608Z,99863.39
2023-04-23T06:41:15.488Z,99860.08
2023-04-23T06:43:43.191Z,99866.46
2023-04-23T06:46:31.975Z,99865.52
2023-04-23T06:48:59.736Z,99862.23
2023-04-23T06:51:27.965Z,99864.32
2023-04-23T06:53:56.338Z,99865.08
2023-04-23T06:56:24.124Z,99864.86
2023-04-23T06:58:51.490Z,99866.71
2023-04-23T07:01:21.453Z,99865.50
2023-04-23T07:03:51.999Z,99863.11
2023-04-23T07:06:19.863Z,99867.59
2023-04-23T07:08:47.696Z,99868.50
2023-04-23T07:11:15.403Z,99873.69
2023-04-23T07:13:43.781Z,99878.04
2023-04-23T07:16:12.080Z,99879.85
2023-04-23T07:18:40.345Z,99880.67
2023-04-23T07:21:08.827Z,99881.39
2023-04-23T07:23:36.896Z,99887.61
2023-04-23T07:26:05.092Z,99884.84
2023-04-23T07:28:32.946Z,99886.27
2023-04-23T07:31:00.839Z,99888.85
2023-04-23T07:33:29.381Z,99888.02
2023-04-23T07:35:57.830Z,99892.09
2023-04-23T07:38:26.200Z,99894.70
2023-04-23T07:40:53.738Z,99896.73
2023-04-23T07:43:22.236Z,99897.79
2023-04-23T07:45:50.861Z,99900.88
2023-04-23T07:48:18.736Z,99899.71
2023-04-23T07:50:46.969Z,99899.41
2023-04-23T07:53:15.234Z,99893.33
2023-04-23T07:55:43.165Z,99888.14
2023-04-23T07:58:11.082Z,99891.64
2023-04-23T08:00:39.884Z,99894.02
2023-04-23T08:03:07.988Z,99898.05
2023-04-23T08:05:38.719Z,99890.91
2023-04-23T08:08:06.539Z,99891.70
2023-04-23T08:10:34.473Z,99893.73
2023-04-23T08:13:03.203Z,99890.77
2023-04-23T08:15:31.649Z,99888.90
2023-04-23T08:17:59.807Z,99886.05
2023-04-23T08:20:27.711Z,99887.44
2023-04-23T08:22:56.681Z,99891.63
2023-04-23T08:25:24.414Z,99886.30
2023-04-23T08:27:52.681Z,99881.10
2023-04-23T08:30:20.255Z,99884.89
2023-04-23T08:32:51.104Z,99882.00
2023-04-23T08:35:19.651Z,99885.52
2023-04-23T08:37:47.100Z,99882.80
2023-04-23T08:40:15.175Z,99877.73
2023-04-23T08:43:11.690Z,99877.17
2023-04-23T08:45:41.727Z,99878.13
2023-04-23T08:48:09.687Z,99877.77
2023-04-23T08:50:38.465Z,99875.48
2023-04-23T08:53:07.492Z,99875.20
2023-04-23T08:55:36.725Z,99873.49
2023-04-23T08:58:06.878Z,99870.80
2023-04-23T09:00:35.746Z,99868.55
2023-04-23T09:03:04.783Z,99867.30
2023-04-23T09:05:32.646Z,99863.71
2023-04-23T09:08:00.126Z,99854.61
2023-04-23T09:10:27.560Z,99857.48
2023-04-23T09:12:55.503Z,99851.49
2023-04-23T09:15:23.297Z,99849.50
2023-04-23T09:17:53.014Z,99849.90
2023-04-23T09:20:21.045Z,99838.27
2023-04-23T09:22:49.655Z,99845.08
2023-04-23T09:25:22.125Z,99841.16
2023-04-23T09:27:50.956Z,99843.77
2023-04-23T09:30:19.821Z,99838.98
2023-04-23T09:32:48.150Z,99842.34
2023-04-23T09:35:17.718Z,99843.33
2023-04-23T09:37:49.517Z,99841.25
2023-04-23T09:40:20.368Z,99838.13
2023-04-23T09:42:54.354Z,99837.52
2023-04-23T09:45:22.826Z,99837.63
2023-04-23T09:47:55.847Z,99842.98
2023-04-23T09:50:40.323Z,99843.30
2023-04-23T09:53:09.312Z,99838.40
2023-04-23T09:55:39.486Z,99842.31
2023-04-23T09:58:11.445Z,99846.19
2023-04-23T10:00:40.253Z,99845.42
2023-04-23T10:03:09.087Z,99843.23
2023-04-23T10:08:16.129Z,99836.04
2023-04-23T10:10:57.406Z,99842.45
2023-04-23T10:13:28.813Z,99838.33
2023-04-23T10:16:07.099Z,99839.09
2023-04-23T10:18:42.231Z,99836.56
2023-04-23T10:21:12.259Z,99837.85
2023-04-23T10:23:40.341Z,99842.89
2023-04-23T10:26:09.696Z,99842.51
2023-04-23T10:28:37.734Z,99849.45
2023-04-23T10:31:05.821Z,99844.58
2023-04-23T10:33:42.671Z,99846.29
2023-04-23T10:36:17.721Z,99846.11
2023-04-23T10:38:57.160Z,99841.79
2023-04-23T10:41:28.167Z,99844.77
2023-04-23T10:43:56.501Z,99844.83
2023-04-23T10:46:31.868Z,99862.15
2023-04-23T10:49:16.716Z,99863.12
2023-04-23T10:54:20.256Z,99863.67
2023-04-23T10:56:49.412Z,99863.54
2023-04-23T10:59:20.797Z,99869.09
2023-04-23T11:01:49.612Z,99868.38
2023-04-23T11:04:28.918Z,99869.84
2023-04-23T11:07:05.408Z,99871.39
2023-04-23T11:09:49.167Z,99875.84
2023-04-23T11:12:30.492Z,99872.73
2023-04-23T11:15:01.466Z,99869.73
2023-04-23T11:17:32.669Z,99874.31
2023-04-23T11:20:14.412Z,99875.44
2023-04-23T11:22:44.156Z,99876.86
2023-04-23T11:25:13.029Z,99878.25
2023-04-23T11:27:44.847Z,99880.17
2023-04-23T11:30:14.555Z,99878.39
2023-04-23T11:32:42.597Z,99878.71
2023-04-23T11:35:13.618Z,99879.02
2023-04-23T11:37:42.579Z,99873.52
2023-04-23T11:40:11.685Z,99873.87
2023-04-23T11:42:53.712Z,99879.64
2023-04-23T11:45:25.733Z,99878.56
2023-04-23T11:47:57.372Z,99876.80
2023-04-23T11:50:26.198Z,99872.02
2023-04-23T11:52:54.044Z,99878.55
2023-04-23T11:55:22.367Z,99884.92
2023-04-23T11:57:51.008Z,99883.94
2023-04-23T12:00:22.782Z,99881.45
2023-04-23T12:03:01.222Z,99882.57
2023-04-23T12:05:29.261Z,99872.88
2023-04-23T12:08:10.852Z,99871.33
2023-04-23T12:11:02.174Z,99874.73
2023-04-23T12:13:33.807Z,99876.05
2023-04-23T12:16:04.066Z,99871.30
2023-04-23T12:18:42.681Z,99869.36
2023-04-23T12:21:13.698Z,99867.86
2023-04-23T12:23:42.136Z,99865.36
2023-04-23T12:26:13.867Z,99858.52
2023-04-23T12:28:51.550Z,99855.27
2023-04-23T12:31:23.552Z,99852.01
2023-04-23T12:34:06.859Z,99850.61
2023-04-23T12:36:39.939Z,99848.08
2023-04-23T12:39:29.509Z,99848.66
2023-04-23T12:42:00.330Z,99846.36
2023-04-23T12:44:28.597Z,99840.55
2023-04-23T12:47:00.695Z,99844.16
2023-04-23T12:49:29.554Z,99843.52
2023-04-23T12:51:57.940Z,99842.38
2023-04-23T12:54:31.688Z,99844.65
2023-04-23T12:57:02.124Z,99843.66
2023-04-23T12:59:30.770Z,99842.71
2023-04-23T13:02:02.427Z,99843.56
2023-04-23T13:04:35.534Z,99845.52
2023-04-23T13:07:03.876Z,99840.98
2023-04-23T13:09:32.262Z,99834.54
2023-04-23T13:12:01.106Z,99843.94
2023-04-23T13:14:29.421Z,99842.48
2023-04-23T13:17:00.822Z,99840.86
2023-04-23T13:19:29.225Z,99836.71
2023-04-23T13:21:57.392Z,99835.34
2023-04-23T13:24:26.970Z,99839.89
2023-04-23T13:26:55.608Z,99835.73
2023-04-23T13:29:27.551Z,99833.30
2023-04-23T13:31:56.070Z,99837.31
2023-04-23T13:34:24.370Z,99838.63
2023-04-23T13:36:52.332Z,99837.09
2023-04-23T13:39:20.641Z,99838.37
2023-04-23T13:41:59.050Z,99835.95
2023-04-23T13:44:34.447Z,99835.52
2023-04-23T13:47:02.796Z,99838.01
2023-04-23T13:49:30.785Z,99833.17
2023-04-23T13:52:01.215Z,99835.22
2023-04-23T13:54:29.504Z,99839.08
2023-04-23T13:56:57.378Z,99837.84
2023-04-23T13:59:25.591Z,99839.47
2023-04-23T14:01:53.385Z,99840.75
2023-04-23T14:04:24.271Z,99845.84
2023-04-23T14:06:53.032Z,99847.83
2023-04-23T14:09:23.183Z,99851.25
2023-04-23T14:11:51.209Z,99848.84
2023-04-23T14:14:18.969Z,99848.94
2023-04-23T14:16:46.911Z,99849.66
2023-04-23T14:19:15.077Z,99847.64
2023-04-23T14:21:42.965Z,99848.41
2023-04-23T14:24:24.876Z,99844.19
2023-04-23T14:26:52.546Z,99841.32
2023-04-23T14:29:32.145Z,99840.42
2023-04-23T14:31:59.965Z,99839.99
2023-04-23T14:34:28.290Z,99837.02
2023-04-23T14:36:56.939Z,99841.14
2023-04-23T14:39:26.406Z,99839.54
2023-04-23T14:41:54.788Z,99838.11
2023-04-23T14:44:27.189Z,99833.30
2023-04-23T14:46:57.795Z,99836.78
2023-04-23T14:49:26.330Z,99832.47
2023-04-23T14:51:55.714Z,99830.61
2023-04-23T14:54:25.081Z,99832.69
2023-04-23T14:56:55.206Z,99832.84
2023-04-23T14:59:24.384Z,99833.30
2023-04-23T15:01:53.708Z,99831.64
2023-04-23T15:04:22.530Z,99826.92
2023-04-23T15:06:51.951Z,99827.95
2023-04-23T15:09:20.770Z,99824.21
2023-04-23T15:11:49.885Z,99819.32
2023-04-23T15:14:32.073Z,99821.45
2023-04-23T15:17:01.517Z,99816.70
2023-04-23T15:19:33.310Z,99823.27
2023-04-23T15:22:03.119Z,99819.54
2023-04-23T15:24:32.363Z,99820.67
2023-04-23T15:27:01.310Z,99819.74
2023-04-23T15:29:31.195Z,99825.66
2023-04-23T15:32:01.079Z,99825.48
2023-04-23T15:34:31.404Z,99830.31
2023-04-23T15:37:01.002Z,99824.27
2023-04-23T15:42:18.536Z,99819.66
2023-04-23T15:51:02.150Z,99826.15
2023-04-23T15:53:31.005Z,99829.59
2023-04-23T15:55:59.911Z,99831.44
2023-04-23T15:58:28.560Z,99832.84
2023-04-23T16:00:57.040Z,99832.30
2023-04-23T16:03:26.908Z,99834.77
2023-04-23T16:05:55.119Z,99836.96
2023-04-23T16:08:22.888Z,99836.27
2023-04-23T16:10:51.540Z,99832.71
2023-04-23T16:21:20.416Z,99837.73
2023-04-23T16:23:49.658Z,99835.80
2023-04-23T16:26:21.772Z,99840.64
2023-04-23T16:28:56.330Z,99842.48
2023-04-23T16:31:29.285Z,99838.69
2023-04-23T16:33:58.227Z,99836.83
2023-04-23T16:36:26.420Z,99837.63
2023-04-23T16:38:54.721Z,99835.99
2023-04-23T16:41:22.934Z,99840.61
